createdAt,value
2023-04-02T00:00:17.537Z,99735.97
2023-04-02T00:02:50.332Z,99731.56
2023-04-02T00:05:31.164Z,99744.75
2023-04-02T00:07:59.944Z,99751.84
2023-04-02T00:10:30.781Z,99757.97
2023-04-02T00:13:06.607Z,99758.91
2023-04-02T00:15:34.920Z,99758.81
2023-04-02T00:18:03.079Z,99767.66
2023-04-02T00:20:32.451Z,99769.41
2023-04-02T00:23:00.131Z,99779.91
2023-04-02T00:25:29.508Z,99778.19
2023-04-02T00:27:57.690Z,99784.41
2023-04-02T00:30:25.198Z,99793.06
2023-04-02T00:32:52.848Z,99795.75
2023-04-02T00:35:23.837Z,99805.41
2023-04-02T00:37:51.749Z,99803.63
2023-04-02T00:40:22.628Z,99812.41
2023-04-02T00:42:51.950Z,99817.75
2023-04-02T00:45:24.111Z,99828.25
2023-04-02T00:47:51.920Z,99826.56
2023-04-02T00:50:24.764Z,99825.00
2023-04-02T00:52:53.448Z,99838.19
2023-04-02T00:55:23.859Z,99842.44
2023-04-02T00:57:53.263Z,99845.97
2023-04-02T01:00:24.744Z,99846.09
2023-04-02T01:03:28.857Z,99843.47
2023-04-02T01:06:01.538Z,99849.59
2023-04-02T01:08:36.550Z,99861.69
2023-04-02T01:11:10.830Z,99856.44
2023-04-02T01:13:43.310Z,99856.34
2023-04-02T01:16:15.623Z,99856.59
2023-04-02T01:18:50.612Z,99863.34
2023-04-02T01:21:53.825Z,99868.69
2023-04-02T01:24:22.210Z,99871.56
2023-04-02T01:26:54.618Z,99879.13
2023-04-02T01:29:25.648Z,99888.06
2023-04-02T01:31:55.036Z,99894.97
2023-04-02T01:34:26.431Z,99894.09
2023-04-02T01:37:08.294Z,99900.25
2023-04-02T01:39:49.022Z,99902.25
2023-04-02T01:42:22.111Z,99906.56
2023-04-02T01:44:51.203Z,99913.56
2023-04-02T01:47:20.960Z,99912.72
2023-04-02T01:49:48.463Z,99908.09
2023-04-02T01:52:18.786Z,99918.78
2023-04-02T01:54:47.702Z,99924.00
2023-04-02T01:57:15.427Z,99927.53
2023-04-02T01:59:43.701Z,99927.56
2023-04-02T02:02:14.252Z,99937.22
2023-04-02T02:04:42.360Z,99951.28
2023-04-02T02:07:15.879Z,99952.09
2023-04-02T02:09:43.730Z,99965.16
2023-04-02T02:12:13.187Z,99960.81
2023-04-02T02:14:41.184Z,99960.03
2023-04-02T02:17:16.168Z,99970.47
2023-04-02T02:19:46.957Z,99969.03
2023-04-02T02:22:26.282Z,99983.78
2023-04-02T02:24:54.770Z,99980.31
2023-04-02T02:27:43.391Z,99988.25
2023-04-02T02:30:15.686Z,99989.06
2023-04-02T02:32:48.948Z,99991.91
2023-04-02T02:35:22.148Z,100001.41
2023-04-02T02:37:54.151Z,100003.19
2023-04-02T02:40:25.038Z,100010.16
2023-04-02T02:42:55.588Z,100005.97
2023-04-02T02:45:26.205Z,100011.03
2023-04-02T02:47:54.391Z,100025.81
2023-04-02T02:50:25.028Z,100024.31
2023-04-02T02:52:54.656Z,100028.69
2023-04-02T02:55:23.724Z,100034.63
2023-04-02T02:57:55.198Z,100033.84
2023-04-02T03:00:24.659Z,100037.34
2023-04-02T03:02:53.503Z,100038.59
2023-04-02T03:05:25.056Z,100049.88
2023-04-02T03:07:54.998Z,100041.81
2023-04-02T03:10:25.790Z,100057.53
2023-04-02T03:12:57.392Z,100053.13
2023-04-02T03:15:31.593Z,100063.78
2023-04-02T03:18:02.438Z,100062.03
2023-04-02T03:20:35.696Z,100061.94
2023-04-02T03:23:05.866Z,100067.28
2023-04-02T03:25:37.999Z,100069.50
2023-04-02T03:28:07.649Z,100076.06
2023-04-02T03:30:39.943Z,100082.09
2023-04-02T03:33:12.173Z,100095.28
2023-04-02T03:35:44.461Z,100091.13
2023-04-02T03:38:16.318Z,100103.31
2023-04-02T03:40:46.688Z,100099.19
2023-04-02T03:43:19.947Z,100110.41
2023-04-02T03:45:50.808Z,100110.66
2023-04-02T03:48:22.081Z,100122.03
2023-04-02T03:50:53.498Z,100127.91
2023-04-02T03:53:24.677Z,100127.91
2023-04-02T03:55:52.320Z,100134.09
2023-04-02T03:58:22.966Z,100138.25
2023-04-02T04:00:53.671Z,100141.25
2023-04-02T04:03:24.512Z,100134.41
2023-04-02T04:05:54.864Z,100150.88
2023-04-02T04:08:25.138Z,100162.69
2023-04-02T04:10:53.583Z,100166.50
2023-04-02T04:13:25.482Z,100178.44
2023-04-02T04:15:55.968Z,100180.22
2023-04-02T04:18:34.710Z,100188.22
2023-04-02T04:21:05.011Z,100185.38
2023-04-02T04:23:33.878Z,100188.13
2023-04-02T04:26:05.487Z,100196.75
2023-04-02T04:28:38.311Z,100213.44
2023-04-02T04:31:17.809Z,100220.41
2023-04-02T04:33:50.526Z,100223.03
2023-04-02T04:36:28.645Z,100230.19
2023-04-02T04:38:59.459Z,100225.97
2023-04-02T04:41:30.367Z,100229.88
2023-04-02T04:44:02.304Z,100238.19
2023-04-02T04:46:33.518Z,100236.72
2023-04-02T04:49:03.819Z,100241.72
2023-04-02T04:51:35.075Z,100241.47
2023-04-02T04:54:02.585Z,100258.09
2023-04-02T04:56:31.905Z,100259.59
2023-04-02T04:59:02.258Z,100255.13
2023-04-02T05:01:34.333Z,100270.13
2023-04-02T05:04:05.481Z,100269.72
2023-04-02T05:06:37.469Z,100274.19
2023-04-02T05:09:09.118Z,100271.94
2023-04-02T05:11:39.742Z,100284.63
2023-04-02T05:14:08.437Z,100284.97
2023-04-02T05:16:40.050Z,100286.84
2023-04-02T05:19:09.873Z,100297.38
2023-04-02T05:21:42.457Z,100300.75
2023-04-02T05:24:30.494Z,100298.94
2023-04-02T05:27:00.884Z,100298.88
2023-04-02T05:29:30.633Z,100312.38
2023-04-02T05:32:03.449Z,100314.00
2023-04-02T05:34:33.238Z,100320.47
2023-04-02T05:37:02.134Z,100324.47
2023-04-02T05:39:31.397Z,100327.38
2023-04-02T05:42:01.809Z,100320.06
2023-04-02T05:44:30.825Z,100332.56
2023-04-02T05:47:00.225Z,100337.03
2023-04-02T05:49:33.410Z,100341.03
2023-04-02T05:52:04.963Z,100353.56
2023-04-02T05:54:35.200Z,100345.94
2023-04-02T05:57:04.973Z,100353.72
2023-04-02T05:59:36.059Z,100365.59
2023-04-02T06:02:07.967Z,100368.88
2023-04-02T06:04:37.716Z,100366.13
2023-04-02T06:07:09.220Z,100373.91
2023-04-02T06:09:40.554Z,100387.19
2023-04-02T06:12:23.747Z,100397.69
2023-04-02T06:14:54.412Z,100395.84
2023-04-02T06:17:22.440Z,100402.06
2023-04-02T06:19:50.623Z,100405.63
2023-04-02T06:22:25.155Z,100413.59
2023-04-02T06:24:58.407Z,100417.91
2023-04-02T06:27:27.365Z,100422.31
2023-04-02T06:29:57.161Z,100419.00
2023-04-02T06:32:25.612Z,100429.50
2023-04-02T06:34:53.321Z,100436.38
2023-04-02T06:37:27.787Z,100440.84
2023-04-02T06:39:55.714Z,100446.28
2023-04-02T06:42:26.189Z,100451.50
2023-04-02T06:44:53.788Z,100455.22
2023-04-02T06:47:27.461Z,100452.53
2023-04-02T06:49:59.545Z,100454.34
2023-04-02T06:52:30.994Z,100468.78
2023-04-02T06:54:59.114Z,100479.00
2023-04-02T06:57:26.676Z,100480.66
2023-04-02T06:59:54.219Z,100484.97
2023-04-02T07:02:30.393Z,100484.19
2023-04-02T07:05:08.998Z,100487.25
2023-04-02T07:07:38.040Z,100492.28
2023-04-02T07:10:06.947Z,100499.47
2023-04-02T07:12:34.419Z,100498.59
2023-04-02T07:15:01.891Z,100509.81
2023-04-02T07:17:29.439Z,100515.16
2023-04-02T07:19:56.953Z,100516.91
2023-04-02T07:22:25.670Z,100513.78
2023-04-02T07:24:54.476Z,100527.84
2023-04-02T07:27:21.934Z,100524.19
2023-04-02T07:29:49.473Z,100530.25
2023-04-02T07:32:17.329Z,100539.66
2023-04-02T07:34:44.811Z,100543.75
2023-04-02T07:37:13.981Z,100552.47
2023-04-02T07:39:41.492Z,100554.44
2023-04-02T07:42:11.020Z,100562.00
2023-04-02T07:44:38.530Z,100561.41
2023-04-02T07:47:06.064Z,100554.41
2023-04-02T07:49:33.588Z,100566.47
2023-04-02T07:52:01.104Z,100563.03
2023-04-02T07:54:28.667Z,100572.63
2023-04-02T07:56:56.337Z,100579.66
2023-04-02T07:59:25.445Z,100575.44
2023-04-02T08:01:53.566Z,100586.06
2023-04-02T08:04:22.400Z,100592.09
2023-04-02T08:06:52.861Z,100600.81
2023-04-02T08:09:20.369Z,100601.25
2023-04-02T08:11:47.885Z,100610.69
2023-04-02T08:14:15.546Z,100627.31
2023-04-02T08:16:49.611Z,100631.00
2023-04-02T08:19:17.160Z,100630.84
2023-04-02T08:21:44.800Z,100628.47
2023-04-02T08:24:12.311Z,100633.09
2023-04-02T08:26:39.766Z,100640.91
2023-04-02T08:29:07.294Z,100649.81
2023-04-02T08:31:34.764Z,100649.56
2023-04-02T08:34:03.637Z,100656.88
2023-04-02T08:36:34.448Z,100657.53
2023-04-02T08:39:02.561Z,100657.66
2023-04-02T08:41:32.170Z,100668.28
2023-04-02T08:44:11.465Z,100666.53
2023-04-02T08:46:43.048Z,100666.00
2023-04-02T08:49:15.570Z,100673.28
2023-04-02T08:51:43.383Z,100681.94
2023-04-02T08:54:17.420Z,100674.63
2023-04-02T08:56:50.204Z,100689.88
2023-04-02T08:59:25.475Z,100692.19
2023-04-02T09:01:58.816Z,100689.88
2023-04-02T09:04:28.220Z,100689.25
2023-04-02T09:06:57.359Z,100699.84
2023-04-02T09:09:25.624Z,100701.19
2023-04-02T09:11:55.344Z,100707.03
2023-04-02T09:14:29.697Z,100706.34
2023-04-02T09:17:00.128Z,100715.22
2023-04-02T09:19:35.352Z,100711.97
2023-04-02T09:22:07.620Z,100723.84
2023-04-02T09:24:36.616Z,100722.09
2023-04-02T09:27:04.410Z,100725.84
2023-04-02T09:29:54.134Z,100731.22
2023-04-02T09:32:28.731Z,100731.53
2023-04-02T09:35:26.185Z,100736.72
2023-04-02T09:38:31.381Z,100751.03
2023-04-02T09:41:00.714Z,100742.53
2023-04-02T09:43:30.275Z,100746.34
2023-04-02T09:46:00.501Z,100752.75
2023-04-02T09:48:31.099Z,100756.00
2023-04-02T09:51:14.726Z,100751.38
2023-04-02T09:53:43.591Z,100763.91
2023-04-02T09:56:14.506Z,100763.50
2023-04-02T09:58:44.039Z,100768.91
2023-04-02T10:01:28.686Z,100770.97
2023-04-02T10:03:56.561Z,100782.34
2023-04-02T10:06:26.427Z,100782.50
2023-04-02T10:08:53.891Z,100783.44
2023-04-02T10:11:30.904Z,100783.44
2023-04-02T10:14:06.182Z,100794.16
2023-04-02T10:16:36.091Z,100786.50
2023-04-02T10:19:08.229Z,100797.84
2023-04-02T10:21:38.744Z,100788.81
2023-04-02T10:24:11.844Z,100800.75
2023-04-02T10:26:47.421Z,100806.75
2023-04-02T10:29:31.402Z,100807.44
2023-04-02T10:32:02.216Z,100801.91
2023-04-02T10:34:36.753Z,100801.56
2023-04-02T10:37:16.219Z,100815.16
2023-04-02T10:39:47.734Z,100817.53
2023-04-02T10:42:19.627Z,100828.31
2023-04-02T10:44:53.876Z,100822.25
2023-04-02T10:47:28.652Z,100825.28
2023-04-02T10:50:05.452Z,100823.13
2023-04-02T10:52:39.394Z,100828.41
2023-04-02T10:55:16.072Z,100833.91
2023-04-02T10:57:44.686Z,100841.16
2023-04-02T11:00:19.489Z,100832.06
2023-04-02T11:02:51.451Z,100842.59
2023-04-02T11:05:24.586Z,100843.59
2023-04-02T11:08:01.868Z,100852.00
2023-04-02T11:10:33.181Z,100847.72
2023-04-02T11:13:04.689Z,100844.50
2023-04-02T11:15:32.522Z,100858.56
2023-04-02T11:18:01.011Z,100850.63
2023-04-02T11:20:57.453Z,100864.59
2023-04-02T11:23:30.298Z,100863.97
2023-04-02T11:26:29.889Z,100875.56
2023-04-02T11:29:07.593Z,100871.09
2023-04-02T11:31:35.506Z,100871.59
2023-04-02T11:34:03.145Z,100863.41
2023-04-02T11:36:59.186Z,100861.53
2023-04-02T11:39:55.239Z,100871.75
2023-04-02T11:42:25.755Z,100860.06
2023-04-02T11:44:53.326Z,100866.56
2023-04-02T11:47:22.499Z,100872.91
2023-04-02T11:50:06.150Z,100873.94
2023-04-02T11:52:37.712Z,100876.63
2023-04-02T11:55:28.243Z,100872.25
2023-04-02T11:58:04.223Z,100872.25
2023-04-02T12:00:49.381Z,100883.56
2023-04-02T12:03:32.122Z,100880.94
2023-04-02T12:06:04.156Z,100889.34
2023-04-02T12:08:50.618Z,100886.03
2023-04-02T12:11:34.104Z,100887.25
2023-04-02T12:14:02.152Z,100880.22
2023-04-02T12:16:34.463Z,100880.22
2023-04-02T12:19:02.316Z,100884.03
2023-04-02T12:21:31.111Z,100877.84
2023-04-02T12:23:59.810Z,100879.66
2023-04-02T12:26:31.963Z,100885.88
2023-04-02T12:29:24.697Z,100884.81
2023-04-02T12:31:53.068Z,100892.06
2023-04-02T12:34:22.384Z,100895.47
2023-04-02T12:36:55.623Z,100905.19
2023-04-02T12:39:25.873Z,100910.38
2023-04-02T12:41:55.308Z,100909.66
2023-04-02T12:44:26.176Z,100914.22
2023-04-02T12:46:54.063Z,100922.94
2023-04-02T12:49:27.367Z,100916.84
2023-04-02T12:51:57.832Z,100918.53
2023-04-02T12:54:25.616Z,100914.25
2023-04-02T12:56:53.375Z,100916.94
2023-04-02T12:59:35.953Z,100916.94
2023-04-02T13:02:15.557Z,100908.91
2023-04-02T13:04:48.304Z,100916.06
2023-04-02T13:07:17.566Z,100917.84
2023-04-02T13:09:47.573Z,100918.75
2023-04-02T13:12:25.832Z,100910.72
2023-04-02T13:14:56.033Z,100942.47
2023-04-02T13:17:40.609Z,100937.03
2023-04-02T13:20:30.711Z,100937.88
2023-04-02T13:22:59.124Z,100927.50
2023-04-02T13:25:30.521Z,100942.72
2023-04-02T13:27:58.566Z,100930.13
2023-04-02T13:30:28.857Z,100941.72
2023-04-02T13:32:56.744Z,100940.94
2023-04-02T13:35:24.579Z,100945.25
2023-04-02T13:37:52.119Z,100945.06
2023-04-02T13:40:20.173Z,100933.69
2023-04-02T13:42:49.506Z,100940.75
2023-04-02T13:45:23.403Z,100949.41
2023-04-02T13:47:52.395Z,100935.53
2023-04-02T13:50:21.565Z,100935.63
2023-04-02T13:52:50.548Z,100930.28
2023-04-02T13:55:18.641Z,100940.94
2023-04-02T13:57:46.189Z,100946.91
2023-04-02T14:00:14.832Z,100948.84
2023-04-02T14:02:44.969Z,100951.56
2023-04-02T14:05:22.465Z,100948.03
2023-04-02T14:07:59.110Z,100961.34
2023-04-02T14:10:33.083Z,100965.59
2023-04-02T14:13:09.711Z,100963.88
2023-04-02T14:15:49.773Z,100981.56
2023-04-02T14:18:29.347Z,100980.69
2023-04-02T14:21:07.383Z,100966.63
2023-04-02T14:23:43.521Z,100968.13
2023-04-02T14:26:16.535Z,100972.75
2023-04-02T14:28:49.357Z,100967.44
2023-04-02T14:31:20.614Z,100964.94
2023-04-02T14:33:54.056Z,100971.09
2023-04-02T14:36:28.693Z,100975.44
2023-04-02T14:38:59.103Z,100983.34
2023-04-02T14:41:33.612Z,100992.88
2023-04-02T14:44:03.053Z,100986.13
2023-04-02T14:46:33.585Z,100977.19
2023-04-02T14:49:07.204Z,100983.56
2023-04-02T14:51:40.638Z,100969.38
2023-04-02T14:54:10.681Z,100992.19
2023-04-02T14:56:40.744Z,100992.19
2023-04-02T14:59:22.634Z,100995.88
2023-04-02T15:01:51.682Z,101010.88
2023-04-02T15:04:21.955Z,101014.56
2023-04-02T15:06:52.414Z,101022.34
2023-04-02T15:09:22.116Z,101023.88
2023-04-02T15:11:51.945Z,101028.31
2023-04-02T15:14:21.962Z,101030.97
2023-04-02T15:16:49.417Z,101032.84
2023-04-02T15:19:18.705Z,101025.81
2023-04-02T15:21:59.071Z,101023.13
2023-04-02T15:24:34.960Z,101029.19
2023-04-02T15:27:14.673Z,101025.72
2023-04-02T15:29:53.644Z,101022.22
2023-04-02T15:32:28.261Z,101030.19
2023-04-02T15:35:00.439Z,101031.13
2023-04-02T15:37:33.912Z,101035.59
2023-04-02T15:40:17.491Z,101040.69
2023-04-02T15:42:48.238Z,101050.38
2023-04-02T15:45:23.802Z,101045.13
2023-04-02T15:48:05.164Z,101053.22
2023-04-02T15:50:44.118Z,101059.47
2023-04-02T15:53:24.463Z,101057.84
2023-04-02T15:55:57.882Z,101062.25
2023-04-02T15:58:28.399Z,101072.81
2023-04-02T16:01:08.390Z,101077.00
2023-04-02T16:03:54.882Z,101072.59
2023-04-02T16:06:28.867Z,101076.00
2023-04-02T16:09:18.051Z,101077.63
2023-04-02T16:11:45.723Z,101086.53
2023-04-02T16:14:22.796Z,101089.19
2023-04-02T16:16:52.137Z,101084.75
2023-04-02T16:19:26.565Z,101092.75
2023-04-02T16:21:59.982Z,101088.28
2023-04-02T16:24:29.149Z,101105.19
2023-04-02T16:27:00.125Z,101108.56
2023-04-02T16:29:54.585Z,101116.63
2023-04-02T16:32:37.818Z,101112.16
2023-04-02T16:35:40.766Z,101122.47
2023-04-02T16:38:10.054Z,101118.94
2023-04-02T16:40:54.318Z,101127.78
2023-04-02T16:43:32.635Z,101124.28
2023-04-02T16:46:07.103Z,101124.38
2023-04-02T16:48:39.885Z,101135.72
2023-04-02T16:51:15.596Z,101136.22
2023-04-02T16:54:01.083Z,101145.53
2023-04-02T16:56:39.848Z,101139.66
2023-04-02T16:59:15.972Z,101149.78
2023-04-02T17:01:47.809Z,101148.06
2023-04-02T17:04:46.620Z,101164.84
2023-04-02T17:07:21.864Z,101162.00
2023-04-02T17:09:51.448Z,101161.06
2023-04-02T17:12:23.268Z,101173.44
2023-04-02T17:14:53.117Z,101177.91
2023-04-02T17:17:21.784Z,101173.56
2023-04-02T17:19:51.476Z,101182.19
2023-04-02T17:22:21.762Z,101177.72
2023-04-02T17:24:51.707Z,101188.19
2023-04-02T17:27:24.717Z,101190.94
2023-04-02T17:29:53.558Z,101194.31
2023-04-02T17:32:24.063Z,101203.19
2023-04-02T17:34:51.596Z,101204.09
2023-04-02T17:37:26.186Z,101204.00
2023-04-02T17:40:00.517Z,101211.97
2023-04-02T17:42:38.531Z,101222.47
2023-04-02T17:45:13.147Z,101223.50
2023-04-02T17:47:48.340Z,101227.16
2023-04-02T17:50:54.526Z,101224.16
2023-04-02T17:53:36.791Z,101237.41
2023-04-02T17:56:11.133Z,101249.63
2023-04-02T17:58:59.856Z,101240.66
2023-04-02T18:01:31.383Z,101247.72
2023-04-02T18:04:07.392Z,101246.03
2023-04-02T18:06:39.340Z,101259.03
2023-04-02T18:09:19.175Z,101255.41
2023-04-02T18:11:53.187Z,101263.41
2023-04-02T18:14:32.769Z,101269.72
2023-04-02T18:17:05.827Z,101277.41
2023-04-02T18:19:38.501Z,101275.53
2023-04-02T18:22:12.756Z,101289.50
2023-04-02T18:24:52.050Z,101286.84
2023-04-02T18:27:31.843Z,101300.75
2023-04-02T18:30:09.243Z,101305.19
2023-04-02T18:32:47.914Z,101309.44
2023-04-02T18:35:21.504Z,101303.34
2023-04-02T18:37:59.072Z,101316.28
2023-04-02T18:40:34.972Z,101318.78
2023-04-02T18:43:07.441Z,101323.41
2023-04-02T18:45:43.362Z,101322.03
2023-04-02T18:48:20.015Z,101325.50
2023-04-02T18:50:47.705Z,101336.94
2023-04-02T18:53:16.649Z,101340.25
2023-04-02T18:55:47.424Z,101348.94
2023-04-02T18:58:20.379Z,101350.69
2023-04-02T19:00:49.192Z,101355.19
2023-04-02T19:03:21.024Z,101357.31
2023-04-02T19:05:50.512Z,101366.06
2023-04-02T19:08:20.831Z,101369.41
2023-04-02T19:10:50.682Z,101367.00
2023-04-02T19:13:19.853Z,101379.72
2023-04-02T19:15:59.418Z,101383.06
2023-04-02T19:18:35.516Z,101388.78
2023-04-02T19:21:14.947Z,101393.56
2023-04-02T19:23:59.291Z,101399.38
2023-04-02T19:26:31.872Z,101398.91
2023-04-02T19:29:03.776Z,101407.13
2023-04-02T19:31:42.675Z,101412.31
2023-04-02T19:34:16.772Z,101417.41
2023-04-02T19:36:47.221Z,101413.78
2023-04-02T19:39:35.532Z,101417.63
2023-04-02T19:42:10.543Z,101417.09
2023-04-02T19:44:41.625Z,101418.69
2023-04-02T19:47:11.162Z,101417.72
2023-04-02T19:49:38.703Z,101426.34
2023-04-02T19:52:06.317Z,101429.69
2023-04-02T19:54:34.914Z,101428.78
2023-04-02T19:57:04.780Z,101419.78
2023-04-02T19:59:33.047Z,101428.47
2023-04-02T20:02:04.279Z,101427.47
2023-04-02T20:04:33.151Z,101429.00
2023-04-02T20:07:00.681Z,101431.56
2023-04-02T20:09:29.079Z,101435.75
2023-04-02T20:11:56.656Z,101440.22
2023-04-02T20:14:24.137Z,101441.75
2023-04-02T20:16:51.862Z,101448.97
2023-04-02T20:19:19.851Z,101444.28
2023-04-02T20:21:48.649Z,101447.94
2023-04-02T20:24:16.239Z,101453.97
2023-04-02T20:26:43.726Z,101455.50
2023-04-02T20:29:11.346Z,101456.19
2023-04-02T20:31:39.009Z,101460.47
2023-04-02T20:34:08.516Z,101457.56
2023-04-02T20:36:36.383Z,101469.78
2023-04-02T20:39:07.817Z,101469.88
2023-04-02T20:41:35.393Z,101474.88
2023-04-02T20:44:03.079Z,101481.81
2023-04-02T20:46:30.593Z,101466.84
2023-04-02T20:48:58.096Z,101483.97
2023-04-02T20:51:25.806Z,101486.63
2023-04-02T20:53:53.700Z,101482.19
2023-04-02T20:56:23.365Z,101495.41
2023-04-02T20:58:51.108Z,101484.81
2023-04-02T21:01:20.833Z,101498.13
2023-04-02T21:03:49.109Z,101494.28
2023-04-02T21:06:18.884Z,101496.88
2023-04-02T21:08:46.692Z,101500.25
2023-04-02T21:11:14.458Z,101500.25
2023-04-02T21:13:44.181Z,101510.59
2023-04-02T21:16:14.432Z,101505.19
2023-04-02T21:18:41.996Z,101514.00
2023-04-02T21:21:09.626Z,101514.06
2023-04-02T21:23:37.095Z,101521.78
2023-04-02T21:26:06.916Z,101526.16
2023-04-02T21:28:34.800Z,101531.25
2023-04-02T21:31:05.489Z,101532.09
2023-04-02T21:33:36.886Z,101539.03
2023-04-02T21:36:08.586Z,101538.78
2023-04-02T21:38:38.172Z,101533.16
2023-04-02T21:41:16.196Z,101540.41
2023-04-02T21:43:43.947Z,101541.72
2023-04-02T21:46:13.090Z,101546.19
2023-04-02T21:48:41.777Z,101547.41
2023-04-02T21:51:10.920Z,101543.75
2023-04-02T21:53:38.511Z,101551.75
2023-04-02T21:56:07.734Z,101548.25
2023-04-02T21:58:35.484Z,101550.59
2023-04-02T22:01:03.465Z,101554.84
2023-04-02T22:03:36.667Z,101560.91
2023-04-02T22:06:06.008Z,101565.19
2023-04-02T22:08:33.989Z,101563.31
2023-04-02T22:11:09.591Z,101564.09
2023-04-02T22:13:37.500Z,101569.34
2023-04-02T22:16:08.542Z,101570.25
2023-04-02T22:18:38.531Z,101570.13
2023-04-02T22:21:07.769Z,101571.78
2023-04-02T22:23:35.925Z,101576.31
2023-04-02T22:26:03.985Z,101573.19
2023-04-02T22:28:31.678Z,101579.03
2023-04-02T22:31:05.188Z,101584.22
2023-04-02T22:33:33.243Z,101586.72
2023-04-02T22:36:02.131Z,101586.34
2023-04-02T22:38:29.725Z,101578.38
2023-04-02T22:41:05.136Z,101581.75
2023-04-02T22:43:32.628Z,101584.28
2023-04-02T22:46:00.176Z,101602.63
2023-04-02T22:48:28.079Z,101593.16
2023-04-02T22:50:55.596Z,101599.00
2023-04-02T22:53:24.543Z,101603.25
2023-04-02T22:55:52.996Z,101603.06
2023-04-02T22:58:20.737Z,101601.28
2023-04-02T23:00:48.960Z,101608.19
2023-04-02T23:03:16.816Z,101610.59
2023-04-02T23:05:46.944Z,101610.38
2023-04-02T23:08:14.430Z,101609.28
2023-04-02T23:10:43.202Z,101607.63
2023-04-02T23:13:10.750Z,101610.13
2023-04-02T23:15:38.260Z,101609.09
2023-04-02T23:18:06.133Z,101614.22
2023-04-02T23:20:33.763Z,101618.31
2023-04-02T23:23:01.248Z,101623.59
2023-04-02T23:25:28.987Z,101621.47
2023-04-02T23:27:57.796Z,101614.97
2023-04-02T23:30:25.431Z,101603.91
2023-04-02T23:32:52.894Z,101612.47
2023-04-02T23:35:20.559Z,101615.03
2023-04-02T23:37:49.389Z,101611.31
2023-04-02T23:40:16.993Z,101611.19
2023-04-02T23:42:44.442Z,101612.03
2023-04-02T23:45:13.539Z,101607.50
2023-04-02T23:47:41.149Z,101606.34
2023-04-02T23:50:09.402Z,101601.22
2023-04-02T23:52:36.869Z,101614.94
2023-04-02T23:55:04.593Z,101620.31
2023-04-02T23:57:32.137Z,101615.06
2023-04-02T23:59:59.720Z,101613.00
